Time;durP1;ratioP1;P1;durP2;ratioP2;P2;SDS_P1;SDS_P2;PMS_P1;PMS_P2;Temp;Humidity;BMP_temperature;BMP_pressure;BME280_temperature;BME280_humidity;BME280_pressure;Samples;Min_cycle;Max_cycle;Signal;HPM_P1;HPM_P2
2021/08/10 00:01:01;;;;;;;7.85;3.30;;;13.30;99.90;;;;;;5093041;28;20055;-79
2021/08/10 00:03:29;;;;;;;5.65;2.50;;;13.40;99.90;;;;;;5093120;28;20489;-79
2021/08/10 00:05:57;;;;;;;2.65;2.45;;;13.60;99.90;;;;;;5093405;28;20048;-79
2021/08/10 00:08:25;;;;;;;6.43;2.13;;;13.60;99.90;;;;;;5092101;28;20579;-85
2021/08/10 00:10:53;;;;;;;2.30;2.10;;;13.40;99.90;;;;;;5091496;28;20468;-86
2021/08/10 00:13:23;;;;;;;2.28;2.08;;;13.20;99.90;;;;;;5073185;28;20126;-85
2021/08/10 00:15:51;;;;;;;3.72;2.90;;;13.20;99.90;;;;;;5073089;28;20037;-85
2021/08/10 00:18:19;;;;;;;3.42;2.35;;;13.10;99.90;;;;;;5078766;28;20036;-86
2021/08/10 00:20:49;;;;;;;2.88;2.33;;;13.20;99.90;;;;;;5092337;28;20071;-86
2021/08/10 00:23:18;;;;;;;2.42;2.22;;;13.20;99.90;;;;;;5092965;28;20055;-86
2021/08/10 00:25:49;;;;;;;2.15;1.88;;;13.20;99.90;;;;;;5093458;28;20044;-85
2021/08/10 00:28:17;;;;;;;;;;;13.20;99.90;;;;;;5092941;28;20422;-86
2021/08/10 00:30:45;;;;;;;4.05;2.53;;;13.20;99.90;;;;;;5092909;28;19928;-86
2021/08/10 00:33:14;;;;;;;3.95;2.78;;;13.20;99.90;;;;;;5092762;28;20052;-85
2021/08/10 00:35:42;;;;;;;2.78;2.00;;;13.20;99.90;;;;;;5091205;28;20036;-86
2021/08/10 00:38:10;;;;;;;2.60;2.40;;;13.20;99.90;;;;;;5091627;28;20055;-86
2021/08/10 00:40:39;;;;;;;5.97;2.50;;;13.10;99.90;;;;;;5091000;28;20044;-86
2021/08/10 00:43:37;;;;;;;6.78;4.30;;;13.00;99.90;;;;;;5087952;28;20412;-85
2021/08/10 00:46:16;;;;;;;2.92;2.42;;;12.90;99.90;;;;;;5088366;28;20044;-86
2021/08/10 00:48:45;;;;;;;3.80;2.33;;;12.80;99.90;;;;;;5087142;28;20048;-86
2021/08/10 00:51:15;;;;;;;4.43;2.35;;;12.90;99.90;;;;;;5086582;28;20040;-79
2021/08/10 00:53:48;;;;;;;2.45;2.25;;;13.00;99.90;;;;;;5071171;28;20051;-79
2021/08/10 00:56:19;;;;;;;3.07;2.57;;;13.10;99.90;;;;;;5082917;28;20058;-79
2021/08/10 00:58:50;;;;;;;;;;;13.20;99.90;;;;;;5090958;28;20032;-81
2021/08/10 01:01:18;;;;;;;1.80;1.70;;;13.10;99.90;;;;;;5087509;28;19924;-80
2021/08/10 01:03:46;;;;;;;2.55;2.35;;;13.00;99.90;;;;;;5061347;28;20047;-81
2021/08/10 01:06:32;;;;;;;2.20;2.00;;;12.90;99.90;;;;;;5089592;28;20048;-79
2021/08/10 01:09:09;;;;;;;3.88;2.95;;;12.80;99.90;;;;;;5072656;28;20041;-82
2021/08/10 01:11:41;;;;;;;4.50;2.80;;;12.80;99.90;;;;;;5069677;28;20047;-82
2021/08/10 01:14:17;;;;;;;4.50;2.42;;;12.80;99.90;;;;;;5071933;28;20397;-82
2021/08/10 01:16:52;;;;;;;2.58;2.28;;;12.90;99.90;;;;;;5071226;28;20060;-83
2021/08/10 01:19:58;;;;;;;4.95;2.65;;;13.00;99.90;;;;;;5070264;28;20048;-82
2021/08/10 01:22:28;;;;;;;3.97;2.42;;;13.10;99.90;;;;;;5071486;28;20489;-82
2021/08/10 01:25:11;;;;;;;3.03;2.50;;;13.10;99.90;;;;;;5087471;28;20044;-82
2021/08/10 01:27:46;;;;;;;;;;;13.10;99.90;;;;;;5091598;28;20480;-82
2021/08/10 01:30:22;;;;;;;1.88;1.40;;;12.90;99.90;;;;;;5090340;28;20357;-82
2021/08/10 01:32:54;;;;;;;2.40;2.17;;;12.80;99.90;;;;;;5086592;28;20037;-82
2021/08/10 01:35:23;;;;;;;2.53;2.17;;;12.80;99.90;;;;;;5069343;28;20047;-82
2021/08/10 01:37:56;;;;;;;5.32;4.63;;;12.80;99.90;;;;;;5069403;28;20052;-82
2021/08/10 01:40:26;;;;;;;2.50;2.28;;;12.80;99.90;;;;;;5097417;28;20048;-82
2021/08/10 01:42:56;;;;;;;7.05;2.75;;;12.90;99.90;;;;;;5072272;28;20048;-82
2021/08/10 01:45:26;;;;;;;3.15;2.53;;;13.00;99.90;;;;;;5090224;28;20048;-82
2021/08/10 01:48:00;;;;;;;2.72;2.00;;;13.00;99.90;;;;;;5089431;28;20048;-82
2021/08/10 01:50:34;;;;;;;3.03;2.78;;;12.90;99.90;;;;;;5090436;28;20401;-82
2021/08/10 01:53:09;;;;;;;2.70;2.38;;;12.80;99.90;;;;;;5089439;28;20074;-82
2021/08/10 01:55:38;;;;;;;2.28;2.08;;;12.80;99.90;;;;;;5089772;28;20043;-82
2021/08/10 01:58:15;;;;;;;2.35;2.15;;;12.80;99.90;;;;;;5089042;28;20052;-82
2021/08/10 02:00:47;;;;;;;1.70;1.60;;;12.80;99.90;;;;;;5089125;28;20056;-82
2021/08/10 02:03:16;;;;;;;5.80;2.78;;;12.70;99.90;;;;;;5123441;27;20032;-82
2021/08/10 02:05:55;;;;;;;1.45;1.40;;;12.60;99.90;;;;;;5123774;27;20051;-82
2021/08/10 02:08:30;;;;;;;8.82;1.92;;;12.60;99.90;;;;;;5123436;27;20044;-82
2021/08/10 02:11:00;;;;;;;;;;;12.60;99.90;;;;;;5103744;28;20039;-81
2021/08/10 02:13:30;;;;;;;3.47;2.20;;;12.60;99.90;;;;;;5069760;28;19927;-82
2021/08/10 02:16:00;;;;;;;5.95;2.58;;;12.70;99.90;;;;;;5069320;28;20409;-81
2021/08/10 02:18:29;;;;;;;2.95;2.47;;;12.80;99.90;;;;;;5089111;28;20051;-81
2021/08/10 02:21:10;;;;;;;2.95;2.65;;;12.90;99.90;;;;;;5089588;28;20048;-82
2021/08/10 02:23:43;;;;;;;2.85;2.30;;;13.00;99.90;;;;;;5089253;28;20048;-82
2021/08/10 02:26:12;;;;;;;2.38;2.17;;;13.10;99.90;;;;;;5090824;28;20404;-81
2021/08/10 02:28:41;;;;;;;3.25;2.58;;;13.10;99.90;;;;;;5072193;28;20048;-81
2021/08/10 02:31:13;;;;;;;2.50;2.30;;;13.10;99.90;;;;;;5123093;27;20036;-81
2021/08/10 02:33:44;;;;;;;2.70;2.50;;;13.00;99.90;;;;;;5089321;28;20051;-82
2021/08/10 02:36:18;;;;;;;2.90;2.63;;;13.00;99.90;;;;;;5088742;28;20097;-82
2021/08/10 02:38:47;;;;;;;2.45;2.25;;;13.00;99.90;;;;;;5090944;28;20389;-82
2021/08/10 02:41:18;;;;;;;3.05;2.78;;;13.00;99.90;;;;;;5067716;28;20516;-82
2021/08/10 02:44:01;;;;;;;5.20;2.63;;;13.00;99.90;;;;;;5068582;28;20115;-82
2021/08/10 02:46:30;;;;;;;2.22;2.00;;;13.00;99.90;;;;;;5070441;28;20063;-81
2021/08/10 02:49:00;;;;;;;3.50;2.95;;;13.00;99.90;;;;;;5069063;28;20048;-81
2021/08/10 02:51:28;;;;;;;5.10;2.80;;;12.90;99.90;;;;;;5068189;28;20047;-82
2021/08/10 02:53:56;;;;;;;3.05;2.75;;;12.90;99.90;;;;;;5069414;28;20048;-82
2021/08/10 02:56:29;;;;;;;2.65;2.45;;;12.90;99.90;;;;;;5068197;28;20051;-82
2021/08/10 02:59:03;;;;;;;2.22;2.03;;;13.00;99.90;;;;;;5069654;28;20051;-84
2021/08/10 03:01:35;;;;;;;3.35;2.45;;;13.00;99.90;;;;;;5071547;28;20048;-84
2021/08/10 03:04:04;;;;;;;2.83;2.63;;;13.10;99.90;;;;;;5074314;28;20485;-84
2021/08/10 03:06:34;;;;;;;4.07;2.80;;;13.10;99.90;;;;;;5072693;28;20664;-84
2021/08/10 03:09:03;;;;;;;3.53;2.60;;;13.00;99.90;;;;;;5072603;28;20047;-84
2021/08/10 03:11:38;;;;;;;3.40;2.03;;;13.00;99.90;;;;;;5077965;28;20335;-84
2021/08/10 03:14:11;;;;;;;5.22;2.40;;;13.00;99.90;;;;;;5093622;28;20055;-85
2021/08/10 03:16:42;;;;;;;2.83;2.10;;;12.90;99.90;;;;;;5060773;28;20053;-84
2021/08/10 03:19:12;;;;;;;2.15;1.95;;;12.90;99.90;;;;;;5074060;28;20045;-85
2021/08/10 03:21:42;;;;;;;4.13;2.65;;;12.90;99.90;;;;;;5072200;28;20048;-84
2021/08/10 03:24:13;;;;;;;2.15;1.95;;;12.80;99.90;;;;;;5085352;28;20044;-84
2021/08/10 03:26:41;;;;;;;3.08;2.78;;;12.60;99.90;;;;;;5093117;28;20054;-85
2021/08/10 03:29:10;;;;;;;3.55;2.38;;;12.50;99.90;;;;;;5094091;28;20036;-85
2021/08/10 03:31:40;;;;;;;8.27;2.47;;;12.50;99.90;;;;;;5092507;28;20485;-85
2021/08/10 03:34:11;;;;;;;;;;;12.50;99.90;;;;;;5127194;27;20048;-84
2021/08/10 03:36:41;;;;;;;3.00;2.70;;;12.50;99.90;;;;;;5092308;28;19928;-85
2021/08/10 03:39:11;;;;;;;3.58;3.28;;;12.50;99.90;;;;;;5092975;28;20036;-84
2021/08/10 03:41:40;;;;;;;3.00;2.70;;;12.50;99.90;;;;;;5084060;28;20513;-85
2021/08/10 03:44:09;;;;;;;15.98;3.28;;;12.50;99.90;;;;;;5073539;28;20056;-84
2021/08/10 03:46:37;;;;;;;2.92;2.72;;;12.50;99.90;;;;;;5072343;28;20556;-85
2021/08/10 03:49:05;;;;;;;9.05;5.15;;;12.50;99.90;;;;;;5072248;28;20795;-84
2021/08/10 03:51:35;;;;;;;6.75;2.10;;;12.50;99.90;;;;;;5054312;28;20037;-85
2021/08/10 03:54:06;;;;;;;2.38;2.17;;;12.40;99.90;;;;;;5072623;28;20048;-85
2021/08/10 03:56:35;;;;;;;2.72;2.53;;;12.30;99.90;;;;;;5057247;28;20084;-84
2021/08/10 03:59:03;;;;;;;3.13;2.92;;;12.30;99.90;;;;;;5053102;28;20060;-84
2021/08/10 04:01:36;;;;;;;4.78;3.10;;;12.40;99.90;;;;;;5052435;28;20056;-84
2021/08/10 04:04:08;;;;;;;2.60;2.40;;;12.60;99.90;;;;;;5051520;28;20044;-84
2021/08/10 04:06:39;;;;;;;2.80;2.60;;;12.50;99.90;;;;;;5051768;28;20045;-85
2021/08/10 04:09:07;;;;;;;2.00;1.90;;;12.40;99.90;;;;;;5070383;28;20044;-85
2021/08/10 04:11:40;;;;;;;1.80;1.70;;;12.30;99.90;;;;;;5078736;28;20044;-85
2021/08/10 04:14:19;;;;;;;2.13;1.95;;;12.30;99.90;;;;;;5092016;28;20064;-85
2021/08/10 04:16:54;;;;;;;1.95;1.85;;;12.20;99.90;;;;;;5093069;28;20385;-85
2021/08/10 04:19:28;;;;;;;4.45;1.95;;;12.10;99.90;;;;;;5091822;28;20059;-85
2021/08/10 04:21:57;;;;;;;8.85;2.42;;;12.10;99.90;;;;;;5091117;28;20055;-85
2021/08/10 04:24:25;;;;;;;1.60;1.50;;;12.10;99.90;;;;;;5058244;28;20036;-84
2021/08/10 04:26:53;;;;;;;4.65;3.95;;;12.10;99.90;;;;;;5091738;28;20043;-84
2021/08/10 04:29:23;;;;;;;2.22;2.03;;;12.20;99.90;;;;;;5092279;28;20036;-85
2021/08/10 04:31:51;;;;;;;2.78;2.58;;;12.20;99.90;;;;;;5057605;28;20044;-85
2021/08/10 04:34:19;;;;;;;3.45;2.95;;;12.30;99.90;;;;;;5092012;28;20044;-85
2021/08/10 04:36:47;;;;;;;3.05;2.47;;;12.30;99.90;;;;;;5091033;28;20162;-85
2021/08/10 04:39:15;;;;;;;3.58;3.25;;;12.40;99.90;;;;;;5074239;28;20051;-85
2021/08/10 04:41:44;;;;;;;2.63;2.42;;;12.40;99.90;;;;;;5090794;28;20059;-84
2021/08/10 04:44:15;;;;;;;4.47;2.88;;;12.60;99.90;;;;;;5091313;28;20036;-85
2021/08/10 04:46:43;;;;;;;2.25;1.70;;;12.60;99.90;;;;;;5091655;28;20047;-85
2021/08/10 04:49:11;;;;;;;2.55;2.35;;;12.50;99.90;;;;;;5092416;28;20039;-85
2021/08/10 04:51:40;;;;;;;3.25;2.40;;;12.50;99.90;;;;;;5090219;28;20055;-84
2021/08/10 04:54:15;;;;;;;3.00;2.70;;;12.50;99.90;;;;;;5091780;28;20063;-84
2021/08/10 04:56:44;;;;;;;6.57;3.20;;;12.60;99.90;;;;;;5090776;28;20044;-84
2021/08/10 04:59:12;;;;;;;3.30;3.00;;;12.70;99.90;;;;;;5071244;28;20401;-85
2021/08/10 05:01:42;;;;;;;2.95;2.55;;;12.80;99.90;;;;;;5070797;28;20044;-84
2021/08/10 05:04:10;;;;;;;4.05;3.75;;;12.90;99.90;;;;;;5072009;28;20037;-84
2021/08/10 05:06:41;;;;;;;5.80;3.10;;;13.10;99.90;;;;;;5070608;28;20053;-84
2021/08/10 05:09:10;;;;;;;7.35;3.63;;;13.20;99.90;;;;;;5070900;28;20040;-84
2021/08/10 05:11:38;;;;;;;5.43;3.72;;;13.30;99.90;;;;;;5078168;28;20055;-84
2021/08/10 05:14:07;;;;;;;4.30;3.45;;;13.50;99.90;;;;;;5091415;28;20477;-84
2021/08/10 05:16:37;;;;;;;3.42;3.13;;;13.60;99.90;;;;;;5092009;28;20043;-84
2021/08/10 05:19:09;;;;;;;4.20;2.58;;;13.70;99.90;;;;;;5090979;28;20055;-84
2021/08/10 05:21:39;;;;;;;7.18;3.50;;;13.90;99.90;;;;;;5090533;28;20044;-84
2021/08/10 05:24:07;;;;;;;2.65;2.45;;;14.20;99.90;;;;;;5072882;28;20047;-85
2021/08/10 05:26:34;;;;;;;3.13;2.72;;;14.40;99.90;;;;;;5090395;28;20063;-84
2021/08/10 05:29:02;;;;;;;2.97;2.45;;;14.60;99.90;;;;;;5090112;28;20047;-84
2021/08/10 05:31:31;;;;;;;5.50;2.40;;;14.80;99.90;;;;;;5090421;28;20040;-85
2021/08/10 05:34:00;;;;;;;3.88;2.67;;;15.00;99.90;;;;;;5090806;28;20055;-85
2021/08/10 05:36:31;;;;;;;;;;;15.10;99.90;;;;;;5090501;28;20047;-84
2021/08/10 05:39:00;;;;;;;3.25;2.88;;;15.20;99.90;;;;;;5090173;28;19920;-84
2021/08/10 05:41:28;;;;;;;3.50;2.30;;;15.30;99.90;;;;;;5083808;28;20048;-85
2021/08/10 05:43:57;;;;;;;2.92;2.72;;;15.50;99.90;;;;;;5070224;28;20041;-84
2021/08/10 05:46:26;;;;;;;7.75;4.03;;;15.60;99.90;;;;;;5070406;28;20051;-85
2021/08/10 05:48:54;;;;;;;2.25;2.03;;;15.80;99.90;;;;;;5069204;28;20057;-86
2021/08/10 05:51:25;;;;;;;2.80;2.50;;;15.90;99.90;;;;;;5068906;28;20047;-85
2021/08/10 05:53:53;;;;;;;2.30;1.98;;;16.00;99.90;;;;;;5053382;28;20417;-85
2021/08/10 05:56:21;;;;;;;2.45;2.25;;;16.10;99.90;;;;;;5069610;28;20044;-87
2021/08/10 05:58:51;;;;;;;3.90;2.67;;;16.20;99.90;;;;;;5052744;28;20044;-85
2021/08/10 06:01:19;;;;;;;2.53;2.28;;;16.30;99.90;;;;;;5069985;28;20052;-86
2021/08/10 06:03:47;;;;;;;3.30;2.67;;;16.40;99.90;;;;;;5052882;28;20048;-86
2021/08/10 06:06:19;;;;;;;3.28;2.97;;;16.60;99.90;;;;;;5070913;28;20053;-86
2021/08/10 06:08:52;;;;;;;3.25;2.95;;;16.70;99.90;;;;;;5069647;28;20071;-85
2021/08/10 06:11:20;;;;;;;5.88;2.45;;;16.80;99.90;;;;;;5069453;28;20046;-85
2021/08/10 06:13:49;;;;;;;2.53;2.33;;;16.90;99.90;;;;;;5070015;28;20048;-86
2021/08/10 06:16:17;;;;;;;4.95;2.22;;;17.10;99.90;;;;;;5053209;28;20388;-86
2021/08/10 06:18:46;;;;;;;2.50;1.92;;;17.10;99.90;;;;;;5089638;28;20469;-86
2021/08/10 06:21:19;;;;;;;9.07;2.50;;;17.30;99.90;;;;;;5088040;28;20059;-86
2021/08/10 06:23:47;;;;;;;3.45;1.80;;;17.40;99.90;;;;;;5089633;28;20036;-86
2021/08/10 06:26:16;;;;;;;6.95;3.45;;;17.50;99.90;;;;;;5089510;28;20047;-87
2021/08/10 06:28:46;;;;;;;2.20;1.90;;;17.80;99.90;;;;;;5055819;28;20047;-86
2021/08/10 06:31:14;;;;;;;2.33;2.13;;;18.10;99.90;;;;;;5071910;28;20040;-87
2021/08/10 06:33:43;;;;;;;4.60;2.47;;;18.20;99.90;;;;;;5091108;28;20055;-87
2021/08/10 06:36:17;;;;;;;3.92;2.03;;;18.50;99.90;;;;;;5088807;28;20040;-86
2021/08/10 06:38:45;;;;;;;2.58;2.38;;;18.60;99.90;;;;;;5089340;28;20044;-86
2021/08/10 06:41:15;;;;;;;2.17;2.03;;;18.60;99.90;;;;;;5088704;28;20052;-86
2021/08/10 06:43:58;;;;;;;1.92;1.67;;;18.70;99.90;;;;;;5089582;28;20051;-87
2021/08/10 06:46:29;;;;;;;4.13;2.05;;;18.70;99.90;;;;;;5089706;28;20051;-86
2021/08/10 06:49:00;;;;;;;2.33;1.83;;;18.70;99.90;;;;;;5106165;28;20044;-86
2021/08/10 06:51:34;;;;;;;2.58;2.17;;;18.80;99.90;;;;;;5088431;28;20040;-86
2021/08/10 06:54:02;;;;;;;1.42;1.33;;;18.80;99.90;;;;;;5072036;28;20044;-86
2021/08/10 06:56:30;;;;;;;1.85;1.70;;;18.90;99.90;;;;;;5072048;28;20051;-81
2021/08/10 06:59:00;;;;;;;2.13;1.80;;;18.90;99.90;;;;;;5088607;28;20055;-81
2021/08/10 07:01:31;;;;;;;4.45;1.90;;;18.80;99.90;;;;;;5089356;28;20051;-86
2021/08/10 07:04:00;;;;;;;2.22;1.73;;;18.90;99.90;;;;;;5089296;28;20489;-86
2021/08/10 07:06:27;;;;;;;5.10;2.85;;;19.00;99.90;;;;;;5090211;28;20381;-82
2021/08/10 07:08:58;;;;;;;3.60;2.58;;;19.20;99.90;;;;;;5088852;28;20063;-77
2021/08/10 07:11:26;;;;;;;3.95;3.47;;;19.50;99.90;;;;;;5088457;28;20036;-77
2021/08/10 07:13:57;;;;;;;1.83;1.70;;;19.60;99.90;;;;;;5089312;28;20040;-78
2021/08/10 07:16:25;;;;;;;2.03;1.80;;;19.90;99.90;;;;;;5088678;28;20043;-77
2021/08/10 07:18:54;;;;;;;1.92;1.60;;;20.20;99.90;;;;;;5088520;28;20066;-77
2021/08/10 07:21:24;;;;;;;2.88;1.75;;;20.40;99.90;;;;;;5088031;28;20051;-77
2021/08/10 07:23:58;;;;;;;2.30;2.10;;;20.50;99.90;;;;;;5088817;28;20078;-77
2021/08/10 07:26:27;;;;;;;6.30;2.08;;;20.60;99.90;;;;;;5088838;28;20051;-78
2021/08/10 07:28:58;;;;;;;4.70;2.38;;;20.70;99.90;;;;;;5088776;28;20643;-78
2021/08/10 07:31:30;;;;;;;2.75;1.42;;;20.70;99.90;;;;;;5087815;28;20401;-78
2021/08/10 07:34:04;;;;;;;1.67;1.58;;;20.60;99.90;;;;;;5085627;28;20390;-78
2021/08/10 07:36:35;;;;;;;3.05;1.70;;;20.70;99.90;;;;;;5068024;28;20075;-77
2021/08/10 07:39:04;;;;;;;2.90;2.15;;;20.60;99.90;;;;;;5068348;28;20055;-78
2021/08/10 07:41:32;;;;;;;3.08;2.05;;;20.70;99.90;;;;;;5076362;28;20059;-86
2021/08/10 07:44:05;;;;;;;2.65;2.28;;;20.50;99.90;;;;;;5088447;28;20044;-86
2021/08/10 07:46:39;;;;;;;3.08;2.28;;;20.10;99.90;;;;;;5089157;28;20733;-85
2021/08/10 07:49:08;;;;;;;7.47;2.25;;;20.20;99.90;;;;;;5091509;28;20051;-85
2021/08/10 07:51:36;;;;;;;1.70;1.60;;;20.30;99.90;;;;;;5091854;28;20044;-85
2021/08/10 07:54:04;;;;;;;2.60;2.10;;;20.40;99.90;;;;;;5092974;28;20040;-85
2021/08/10 07:56:32;;;;;;;5.32;2.10;;;20.50;99.90;;;;;;5091904;28;20516;-85
2021/08/10 07:59:00;;;;;;;1.55;1.35;;;20.60;99.90;;;;;;5092510;28;20484;-86
2021/08/10 08:01:28;;;;;;;2.13;1.92;;;20.70;99.90;;;;;;5075304;28;20056;-85
2021/08/10 08:03:56;;;;;;;3.35;1.90;;;20.60;99.90;;;;;;5093680;28;20036;-85
2021/08/10 08:06:23;;;;;;;9.85;2.45;;;20.60;99.90;;;;;;5092211;28;20048;-85
2021/08/10 08:08:51;;;;;;;2.22;2.03;;;20.60;99.90;;;;;;5091830;28;20040;-86
2021/08/10 08:11:23;;;;;;;3.92;2.35;;;20.60;99.90;;;;;;5091017;28;20370;-86
2021/08/10 08:13:53;;;;;;;2.78;2.50;;;20.50;99.90;;;;;;5089226;28;20040;-86
2021/08/10 08:16:20;;;;;;;4.97;2.85;;;20.40;99.90;;;;;;5074492;28;20049;-86
2021/08/10 08:18:48;;;;;;;2.50;2.13;;;20.40;99.90;;;;;;5092327;28;20055;-86
2021/08/10 08:21:19;;;;;;;;;;;20.40;99.90;;;;;;5091067;28;20055;-86
2021/08/10 08:23:52;;;;;;;2.17;1.50;;;20.50;99.90;;;;;;5075608;28;20361;-87
2021/08/10 08:26:21;;;;;;;5.07;2.60;;;20.40;99.90;;;;;;5091920;28;20044;-86
2021/08/10 08:28:52;;;;;;;2.05;1.85;;;20.30;99.90;;;;;;5075574;28;20044;-86
2021/08/10 08:31:20;;;;;;;2.20;1.95;;;20.50;99.90;;;;;;5091402;28;20032;-86
2021/08/10 08:34:03;;;;;;;2.30;2.10;;;20.50;99.90;;;;;;5076443;28;20059;-85
2021/08/10 08:36:32;;;;;;;2.67;1.80;;;20.60;99.90;;;;;;5073791;28;20044;-86
2021/08/10 08:39:00;;;;;;;1.95;1.77;;;20.70;99.90;;;;;;5075014;28;20047;-86
2021/08/10 08:41:30;;;;;;;2.05;1.70;;;20.70;99.90;;;;;;5073548;28;20062;-86
2021/08/10 08:43:58;;;;;;;2.97;2.65;;;20.70;99.90;;;;;;5091447;28;20055;-86
2021/08/10 08:46:27;;;;;;;4.45;1.60;;;20.80;99.90;;;;;;5091598;28;20573;-85
2021/08/10 08:48:58;;;;;;;2.97;2.30;;;20.90;99.90;;;;;;5091136;28;20044;-86
2021/08/10 08:51:28;;;;;;;3.63;1.50;;;21.00;99.90;;;;;;5090735;28;20036;-85
2021/08/10 08:53:57;;;;;;;2.10;1.75;;;21.10;99.90;;;;;;5091685;28;20434;-84
2021/08/10 08:56:32;;;;;;;6.55;2.45;;;21.20;99.90;;;;;;5090948;28;20040;-84
2021/08/10 08:59:03;;;;;;;2.60;2.25;;;21.60;99.90;;;;;;5087397;28;20052;-85
2021/08/10 09:01:37;;;;;;;3.20;2.95;;;21.70;99.90;;;;;;5071155;28;20040;-84
2021/08/10 09:04:08;;;;;;;2.13;1.90;;;21.80;99.90;;;;;;5070687;28;20056;-85
2021/08/10 09:06:43;;;;;;;2.78;2.58;;;21.90;99.90;;;;;;5071088;28;20050;-84
2021/08/10 09:09:25;;;;;;;3.92;1.63;;;21.90;99.90;;;;;;5070601;28;20500;-82
2021/08/10 09:12:15;;;;;;;1.42;1.23;;;22.10;99.90;;;;;;5063556;28;20059;-80
2021/08/10 09:14:49;;;;;;;4.63;1.58;;;21.90;99.90;;;;;;5074180;28;20055;-82
2021/08/10 09:17:23;;;;;;;2.65;2.45;;;21.90;99.90;;;;;;5068486;28;20394;-83
2021/08/10 09:20:02;;;;;;;3.20;1.85;;;21.90;99.90;;;;;;5068975;28;20044;-82
2021/08/10 09:22:37;;;;;;;2.85;2.00;;;22.20;99.90;;;;;;5070531;28;20048;-84
2021/08/10 09:25:28;;;;;;;2.70;2.45;;;22.20;99.90;;;;;;5045233;28;20489;-84
2021/08/10 09:28:08;;;;;;;2.28;1.90;;;22.20;99.90;;;;;;5086653;28;20051;-84
2021/08/10 09:30:41;;;;;;;7.72;2.60;;;22.10;99.90;;;;;;5087165;28;20048;-84
2021/08/10 09:33:10;;;;;;;1.77;1.50;;;22.10;99.90;;;;;;5086234;28;20052;-84
2021/08/10 09:35:46;;;;;;;5.55;2.67;;;22.20;99.90;;;;;;5069505;28;20070;-84
2021/08/10 09:38:20;;;;;;;2.03;1.45;;;22.20;99.90;;;;;;5070086;28;20057;-83
2021/08/10 09:40:52;;;;;;;3.65;2.25;;;22.40;99.90;;;;;;5086544;28;20520;-84
2021/08/10 09:43:35;;;;;;;2.47;1.70;;;22.50;99.90;;;;;;5073580;28;20501;-84
2021/08/10 09:46:15;;;;;;;;;;;22.60;99.90;;;;;;5074645;28;20052;-84
2021/08/10 09:48:51;;;;;;;1.63;1.50;;;22.60;99.90;;;;;;5072580;28;19931;-85
2021/08/10 09:51:30;;;;;;;4.55;2.45;;;22.80;99.90;;;;;;5088683;28;20040;-84
2021/08/10 09:54:04;;;;;;;2.55;2.20;;;22.70;99.90;;;;;;5073229;28;20066;-84
2021/08/10 09:56:53;;;;;;;3.58;2.33;;;22.90;99.90;;;;;;5072054;28;20052;-85
2021/08/10 09:59:27;;;;;;;1.52;1.38;;;22.90;99.90;;;;;;5072608;28;20058;-84
2021/08/10 10:01:59;;;;;;;3.03;2.25;;;22.90;99.90;;;;;;5073380;28;20059;-84
2021/08/10 10:04:31;;;;;;;2.08;1.48;;;23.00;99.90;;;;;;5089702;28;20047;-84
2021/08/10 10:07:10;;;;;;;2.53;1.85;;;23.00;99.90;;;;;;5073793;28;20059;-84
2021/08/10 10:10:04;;;;;;;2.08;1.85;;;23.10;99.90;;;;;;5084692;28;20436;-84
2021/08/10 10:12:42;;;;;;;4.80;2.13;;;23.00;99.90;;;;;;5072034;28;20534;-83
2021/08/10 10:15:11;;;;;;;5.40;2.35;;;22.90;99.90;;;;;;5089014;28;20051;-84
2021/08/10 10:17:39;;;;;;;6.13;1.77;;;22.90;99.90;;;;;;5056535;28;20055;-85
2021/08/10 10:20:08;;;;;;;2.22;1.65;;;22.90;99.90;;;;;;5069819;28;20493;-85
2021/08/10 10:22:36;;;;;;;2.47;1.40;;;23.00;99.90;;;;;;5069405;28;20045;-85
2021/08/10 10:25:04;;;;;;;2.33;2.13;;;23.00;99.90;;;;;;5070536;28;20041;-86
2021/08/10 10:27:36;;;;;;;4.03;2.45;;;23.20;99.90;;;;;;5070260;28;20083;-85
2021/08/10 10:30:04;;;;;;;2.67;1.50;;;23.40;99.90;;;;;;5069688;28;20097;-85
2021/08/10 10:32:32;;;;;;;3.40;1.85;;;23.40;99.90;;;;;;5070619;28;20044;-85
2021/08/10 10:35:00;;;;;;;3.03;2.35;;;23.40;99.90;;;;;;5068428;28;20397;-85
2021/08/10 10:37:31;;;;;;;4.30;2.42;;;23.50;99.90;;;;;;5070391;28;20049;-85
2021/08/10 10:40:06;;;;;;;5.07;2.55;;;23.60;99.90;;;;;;5069605;28;20381;-84
2021/08/10 10:42:36;;;;;;;3.33;3.03;;;23.70;99.90;;;;;;5085544;28;20071;-85
2021/08/10 10:45:05;;;;;;;1.53;1.43;;;23.50;99.90;;;;;;5088764;28;20040;-85
2021/08/10 10:47:34;;;;;;;1.67;1.58;;;23.60;99.90;;;;;;5088937;28;20052;-85
2021/08/10 10:50:03;;;;;;;1.67;1.58;;;23.50;99.30;;;;;;5090565;28;20048;-85
2021/08/10 10:52:39;;;;;;;4.20;2.28;;;23.60;99.90;;;;;;5090526;28;20423;-85
2021/08/10 10:55:10;;;;;;;4.93;2.35;;;23.70;99.30;;;;;;5089474;28;20059;-85
2021/08/10 10:57:37;;;;;;;3.35;2.05;;;23.70;99.70;;;;;;5088988;28;20048;-86
2021/08/10 11:00:05;;;;;;;2.50;1.70;;;23.80;99.90;;;;;;5089656;28;20056;-85
2021/08/10 11:02:36;;;;;;;2.70;2.40;;;23.70;99.90;;;;;;5090849;28;20044;-85
2021/08/10 11:05:04;;;;;;;6.35;1.90;;;23.80;99.90;;;;;;5090056;28;20555;-85
2021/08/10 11:07:44;;;;;;;2.20;1.85;;;23.90;99.90;;;;;;5090216;28;20062;-85
2021/08/10 11:10:36;;;;;;;20.58;2.60;;;23.90;99.90;;;;;;5105757;28;20052;-84
2021/08/10 11:13:17;;;;;;;4.63;1.92;;;23.90;99.90;;;;;;5090088;28;20070;-85
2021/08/10 11:15:44;;;;;;;2.38;1.70;;;23.90;99.90;;;;;;5090082;28;20501;-85
2021/08/10 11:18:12;;;;;;;4.70;2.58;;;24.00;99.90;;;;;;5090845;28;20393;-85
2021/08/10 11:20:50;;;;;;;5.43;2.00;;;23.90;99.50;;;;;;5089508;28;20048;-85
2021/08/10 11:23:23;;;;;;;2.47;1.70;;;24.00;99.90;;;;;;5091801;28;20044;-84
2021/08/10 11:26:00;;;;;;;4.90;2.38;;;24.10;99.90;;;;;;5094823;28;20051;-85
2021/08/10 11:28:36;;;;;;;3.33;2.50;;;24.20;99.90;;;;;;5093983;28;20044;-86
2021/08/10 11:31:09;;;;;;;8.15;3.08;;;24.20;99.90;;;;;;5093405;28;20055;-85
2021/08/10 11:33:42;;;;;;;2.95;2.75;;;24.10;99.90;;;;;;5094257;28;20055;-85
2021/08/10 11:36:09;;;;;;;2.75;1.90;;;24.10;99.90;;;;;;5093846;28;20047;-84
2021/08/10 11:38:52;;;;;;;2.63;2.10;;;24.20;99.90;;;;;;5094221;28;20044;-85
2021/08/10 11:41:31;;;;;;;5.05;2.13;;;24.30;99.90;;;;;;5085996;28;20514;-85
2021/08/10 11:44:17;;;;;;;4.43;1.80;;;24.30;99.90;;;;;;5073665;28;20045;-85
2021/08/10 11:46:47;;;;;;;2.15;1.98;;;24.30;99.90;;;;;;5089253;28;20801;-85
2021/08/10 11:49:19;;;;;;;4.75;4.00;;;24.50;99.80;;;;;;5071911;28;20040;-85
2021/08/10 11:51:49;;;;;;;5.30;2.10;;;24.50;99.90;;;;;;5073049;28;20063;-85
2021/08/10 11:54:20;;;;;;;3.97;2.60;;;24.50;99.00;;;;;;5073510;28;20048;-87
2021/08/10 11:56:50;;;;;;;2.40;2.20;;;24.50;99.90;;;;;;5072970;28;20085;-86
2021/08/10 11:59:25;;;;;;;4.18;1.58;;;24.60;98.70;;;;;;5072943;28;20041;-85
2021/08/10 12:01:59;;;;;;;4.78;2.60;;;24.70;99.90;;;;;;5073534;28;20413;-86
2021/08/10 12:04:45;;;;;;;3.00;2.45;;;24.80;99.90;;;;;;5020874;27;20394;-85
2021/08/10 12:07:29;;;;;;;2.58;2.00;;;24.80;98.30;;;;;;4990815;28;20852;-84
2021/08/10 12:10:02;;;;;;;4.03;2.67;;;24.80;99.60;;;;;;4990795;28;20054;-85
2021/08/10 12:12:36;;;;;;;7.63;2.95;;;24.70;98.50;;;;;;4990352;28;20042;-85
2021/08/10 12:15:04;;;;;;;2.28;2.05;;;24.70;99.10;;;;;;4974883;28;20062;-84
2021/08/10 12:17:51;;;;;;;3.47;1.90;;;24.80;99.90;;;;;;5007254;28;20053;-85
2021/08/10 12:20:19;;;;;;;3.83;1.60;;;24.90;99.00;;;;;;4988173;28;20058;-85
2021/08/10 12:23:05;;;;;;;3.63;2.25;;;25.00;98.20;;;;;;4988737;28;20053;-85
2021/08/10 12:25:36;;;;;;;3.35;2.95;;;24.90;96.10;;;;;;4974816;28;20053;-84
2021/08/10 12:28:08;;;;;;;;;;;24.90;98.80;;;;;;5006818;28;20050;-85
2021/08/10 12:30:42;;;;;;;2.20;1.98;;;25.10;97.30;;;;;;4990329;28;19948;-84
2021/08/10 12:33:14;;;;;;;3.90;2.22;;;25.10;96.40;;;;;;4995294;28;20518;-84
2021/08/10 12:36:04;;;;;;;2.63;2.28;;;25.20;98.60;;;;;;4989448;28;20053;-85
2021/08/10 12:38:46;;;;;;;35.95;3.60;;;25.30;97.30;;;;;;4992796;28;20058;-84
2021/08/10 12:41:36;;;;;;;4.45;3.08;;;25.30;99.90;;;;;;4994481;28;20064;-84
2021/08/10 12:44:40;;;;;;;4.93;2.25;;;25.30;96.50;;;;;;5027034;28;20053;-83
2021/08/10 12:47:16;;;;;;;5.60;2.42;;;25.40;99.70;;;;;;5027134;28;20072;-84
2021/08/10 12:49:47;;;;;;;3.05;1.83;;;25.50;99.90;;;;;;5025672;28;20061;-84
2021/08/10 12:52:59;;;;;;;6.82;2.97;;;25.50;99.90;;;;;;5025116;28;20042;-83
2021/08/10 12:55:49;;;;;;;2.67;2.35;;;25.30;99.90;;;;;;5008278;28;20069;-84
2021/08/10 12:58:23;;;;;;;;;;;25.40;99.00;;;;;;4990759;28;20042;-84
2021/08/10 13:01:11;;;;;;;2.30;1.48;;;25.50;97.10;;;;;;4971832;28;20286;-85
2021/08/10 13:03:39;;;;;;;2.30;1.73;;;25.40;95.80;;;;;;4989653;28;20085;-84
2021/08/10 13:06:22;;;;;;;3.42;2.03;;;25.40;95.30;;;;;;4989833;28;20066;-84
2021/08/10 13:09:07;;;;;;;2.92;2.17;;;25.40;97.50;;;;;;4980545;28;20042;-85
2021/08/10 13:11:50;;;;;;;2.03;1.73;;;25.40;97.30;;;;;;4970895;28;20093;-84
2021/08/10 13:14:24;;;;;;;8.60;2.25;;;25.30;94.50;;;;;;4998041;28;20065;-85
2021/08/10 13:17:01;;;;;;;2.53;2.33;;;25.40;96.30;;;;;;5003340;28;20042;-85